createdAt,value
2018-03-20T00:00:09.209Z,3.45
2018-03-20T00:00:49.724Z,3.5
2018-03-20T00:01:30.233Z,3.54
2018-03-20T00:02:10.750Z,3.21
2018-03-20T00:02:51.264Z,3.32
2018-03-20T00:03:31.760Z,3.23
2018-03-20T00:04:12.267Z,3.23
2018-03-20T00:04:52.778Z,3.29
2018-03-20T00:05:33.288Z,3.24
2018-03-20T00:06:13.810Z,3.23
2018-03-20T00:06:54.325Z,3.31
2018-03-20T00:07:34.839Z,3.47
2018-03-20T00:08:15.341Z,3.54
2018-03-20T00:08:55.881Z,3.52
2018-03-20T00:09:36.386Z,3.6
2018-03-20T00:10:16.887Z,3.61
2018-03-20T00:10:57.402Z,3.58
2018-03-20T00:11:37.925Z,3.62
2018-03-20T00:12:18.437Z,3.73
2018-03-20T00:12:58.947Z,3.7
2018-03-20T00:13:39.465Z,3.66
2018-03-20T00:14:19.983Z,3.7
2018-03-20T00:15:00.485Z,3.57
2018-03-20T00:15:40.998Z,3.5
2018-03-20T00:16:21.516Z,3.62
2018-03-20T00:17:02.024Z,3.61
2018-03-20T00:17:42.535Z,3.62
2018-03-20T00:18:23.080Z,3.58
2018-03-20T00:19:03.581Z,3.61
2018-03-20T00:19:44.119Z,3.66
2018-03-20T00:20:24.650Z,3.62
2018-03-20T00:21:05.146Z,3.52
2018-03-20T00:21:45.670Z,3.28
2018-03-20T00:22:26.188Z,3.35
2018-03-20T00:23:06.727Z,3.21
2018-03-20T00:23:47.243Z,3.24
2018-03-20T00:24:27.776Z,3.33
2018-03-20T00:25:08.284Z,3.32
2018-03-20T00:25:48.800Z,3.26
2018-03-20T00:26:29.286Z,3.33
2018-03-20T00:27:09.798Z,3.43
2018-03-20T00:27:50.315Z,3.51
2018-03-20T00:28:30.812Z,3.55
2018-03-20T00:29:11.318Z,3.61
2018-03-20T00:29:51.838Z,3.62
2018-03-20T00:30:32.354Z,3.51
2018-03-20T00:31:12.882Z,3.58
2018-03-20T00:31:53.387Z,3.54
2018-03-20T00:32:33.898Z,3.52
2018-03-20T00:33:14.427Z,3.43
2018-03-20T00:33:54.942Z,3.58
2018-03-20T00:34:35.456Z,3.61
2018-03-20T00:35:15.971Z,3.54
2018-03-20T00:35:56.496Z,3.58
2018-03-20T00:36:37.011Z,3.54
2018-03-20T00:37:17.528Z,3.57
2018-03-20T00:37:58.032Z,3.62
2018-03-20T00:38:38.556Z,3.62
2018-03-20T00:39:19.054Z,3.68
2018-03-20T00:39:59.574Z,3.5
2018-03-20T00:40:40.093Z,3.23
2018-03-20T00:41:20.603Z,3.21
2018-03-20T00:42:01.121Z,3.32
2018-03-20T00:42:41.629Z,3.36
2018-03-20T00:43:22.175Z,3.28
2018-03-20T00:44:02.691Z,3.21
2018-03-20T00:44:43.206Z,3.08
2018-03-20T00:45:23.722Z,3
2018-03-20T00:46:04.233Z,3.05
2018-03-20T00:46:44.763Z,3.21
2018-03-20T00:47:25.278Z,3.24
2018-03-20T00:48:05.798Z,3.2
2018-03-20T00:48:46.317Z,3.14
2018-03-20T00:49:26.819Z,3.13
2018-03-20T00:50:07.351Z,2.97
2018-03-20T00:50:47.858Z,3
2018-03-20T00:51:28.388Z,3.15
2018-03-20T00:52:08.891Z,3.11
2018-03-20T00:52:49.404Z,3.32
2018-03-20T00:53:29.929Z,3.29
2018-03-20T00:54:10.426Z,3.26
2018-03-20T00:54:50.941Z,3.4
2018-03-20T00:55:31.451Z,3.4
2018-03-20T00:56:11.955Z,3.32
2018-03-20T00:56:52.478Z,3.26
2018-03-20T00:57:32.976Z,3.29
2018-03-20T00:58:13.507Z,3.23
2018-03-20T00:58:54.017Z,3.32
2018-03-20T00:59:34.512Z,3.32
2018-03-20T01:00:15.028Z,3.32
2018-03-20T01:00:55.555Z,3.23
2018-03-20T01:01:36.069Z,3.24
2018-03-20T01:02:16.576Z,3.1
2018-03-20T01:02:57.081Z,3.17
2018-03-20T01:03:37.594Z,3.1
2018-03-20T01:04:18.114Z,3.1
2018-03-20T01:04:58.623Z,3.1
2018-03-20T01:05:39.137Z,3.18
2018-03-20T01:06:19.649Z,3.28
2018-03-20T01:07:00.174Z,3.28
2018-03-20T01:07:40.660Z,3.29
2018-03-20T01:08:21.160Z,3.33
2018-03-20T01:09:01.666Z,3.4
2018-03-20T01:09:42.171Z,3.51
2018-03-20T01:10:22.665Z,3.29
2018-03-20T01:11:03.190Z,3.31
2018-03-20T01:11:43.688Z,3.39
2018-03-20T01:13:21.528Z,3.45
2018-03-20T01:14:02.035Z,3.4
2018-03-20T01:14:42.556Z,3.33
2018-03-20T01:15:23.092Z,3.26
2018-03-20T01:16:03.620Z,3.14
2018-03-20T01:16:44.129Z,3.13
2018-03-20T01:17:24.667Z,3.18
2018-03-20T01:18:05.166Z,3.2
2018-03-20T01:18:45.663Z,3.14
2018-03-20T01:19:26.174Z,3.13
2018-03-20T01:20:06.681Z,2.97
2018-03-20T01:20:47.195Z,2.82
2018-03-20T01:21:27.691Z,2.89
2018-03-20T01:22:08.204Z,2.82
2018-03-20T01:22:48.734Z,2.85
2018-03-20T01:23:29.242Z,3.02
2018-03-20T01:24:09.751Z,2.95
2018-03-20T01:24:50.265Z,2.89
2018-03-20T01:25:30.780Z,3.05
2018-03-20T01:26:11.297Z,2.99
2018-03-20T01:26:51.804Z,2.92
2018-03-20T01:27:32.315Z,3.06
2018-03-20T01:28:12.834Z,3.08
2018-03-20T01:28:53.342Z,3.24
2018-03-20T01:29:33.848Z,3.21
2018-03-20T01:30:14.391Z,3.23
2018-03-20T01:30:54.864Z,3.31
2018-03-20T01:31:35.371Z,3.23
2018-03-20T01:32:15.875Z,3.18
2018-03-20T01:32:56.387Z,3.18
2018-03-20T01:33:36.897Z,3.1
2018-03-20T01:34:17.414Z,2.89
2018-03-20T01:34:57.915Z,2.92
2018-03-20T01:35:38.443Z,2.84
2018-03-20T01:36:18.947Z,2.93
2018-03-20T01:36:59.485Z,2.92
2018-03-20T01:37:40.007Z,2.84
2018-03-20T01:38:20.518Z,2.93
2018-03-20T01:39:01.034Z,2.84
2018-03-20T01:39:41.552Z,2.96
2018-03-20T01:40:22.061Z,3.05
2018-03-20T01:41:02.576Z,3.13
2018-03-20T01:41:43.083Z,2.96
2018-03-20T01:42:23.612Z,3.05
2018-03-20T01:43:04.128Z,3.14
2018-03-20T01:43:44.636Z,2.96
2018-03-20T01:44:25.142Z,2.99
2018-03-20T01:45:05.647Z,2.97
2018-03-20T01:45:46.158Z,3.06
2018-03-20T01:46:26.672Z,3.11
2018-03-20T01:47:07.188Z,3.02
2018-03-20T01:47:47.706Z,3.03
2018-03-20T01:48:28.231Z,3
2018-03-20T01:49:08.745Z,2.96
2018-03-20T01:49:49.248Z,2.89
2018-03-20T01:50:29.760Z,3.05
2018-03-20T01:51:10.270Z,2.95
2018-03-20T01:51:50.785Z,3.05
2018-03-20T01:52:31.298Z,2.92
2018-03-20T01:53:11.802Z,3.03
2018-03-20T01:53:52.308Z,2.97
2018-03-20T01:54:32.836Z,2.93
2018-03-20T01:55:13.344Z,2.95
2018-03-20T01:55:53.844Z,2.82
2018-03-20T01:56:34.353Z,2.84
2018-03-20T01:57:14.904Z,2.9
2018-03-20T01:57:55.411Z,2.85
2018-03-20T01:58:35.916Z,2.85
2018-03-20T01:59:16.428Z,2.84
2018-03-20T01:59:56.936Z,3.05
2018-03-20T02:00:37.459Z,2.95
2018-03-20T02:01:17.967Z,3.11
2018-03-20T02:01:58.451Z,3
2018-03-20T02:02:38.958Z,2.87
2018-03-20T02:03:19.475Z,2.78
2018-03-20T02:03:59.997Z,2.78
2018-03-20T02:04:40.505Z,2.72
2018-03-20T02:05:21.020Z,2.78
2018-03-20T02:06:01.530Z,2.9
2018-03-20T02:06:42.045Z,2.81
2018-03-20T02:07:22.557Z,2.82
2018-03-20T02:08:03.072Z,2.87
2018-03-20T02:08:43.578Z,2.9
2018-03-20T02:09:24.085Z,2.74
2018-03-20T02:10:04.595Z,2.69
2018-03-20T02:10:45.128Z,2.85
2018-03-20T02:11:25.651Z,2.64
2018-03-20T02:12:06.156Z,2.64
2018-03-20T02:12:46.673Z,2.71
2018-03-20T02:13:27.178Z,2.84
2018-03-20T02:14:07.697Z,2.89
2018-03-20T02:14:48.217Z,2.69
2018-03-20T02:15:28.734Z,2.69
2018-03-20T02:16:09.246Z,2.6
2018-03-20T02:16:49.756Z,2.64
2018-03-20T02:17:30.271Z,2.66
2018-03-20T02:18:10.789Z,2.67
2018-03-20T02:18:51.319Z,2.6
2018-03-20T02:19:31.833Z,2.63
2018-03-20T02:20:12.356Z,2.6
2018-03-20T02:20:52.857Z,2.72
2018-03-20T02:21:33.374Z,2.52
2018-03-20T02:22:13.883Z,2.71
2018-03-20T02:22:54.396Z,2.64
2018-03-20T02:23:34.915Z,2.63
2018-03-20T02:24:15.437Z,2.48
2018-03-20T02:24:55.959Z,2.49
2018-03-20T02:25:36.480Z,2.48
2018-03-20T02:26:16.991Z,2.46
2018-03-20T02:26:57.503Z,2.46
2018-03-20T02:27:38.008Z,2.54
2018-03-20T02:28:18.527Z,2.57
2018-03-20T02:28:59.022Z,2.56
2018-03-20T02:29:39.532Z,2.49
2018-03-20T02:30:20.037Z,2.54
2018-03-20T02:31:00.550Z,2.53
2018-03-20T02:31:41.074Z,2.57
2018-03-20T02:32:21.583Z,2.48
2018-03-20T02:33:02.093Z,2.48
2018-03-20T02:33:42.595Z,2.48
2018-03-20T02:34:23.100Z,2.63
2018-03-20T02:35:03.594Z,2.63
2018-03-20T02:35:44.111Z,2.71
2018-03-20T02:36:24.618Z,2.54
2018-03-20T02:37:05.136Z,2.6
2018-03-20T02:37:45.645Z,2.69
2018-03-20T02:38:26.151Z,2.64
2018-03-20T02:39:06.680Z,2.66
2018-03-20T02:39:47.180Z,2.75
2018-03-20T02:40:27.696Z,2.6
2018-03-20T02:41:08.216Z,2.66
2018-03-20T02:41:48.728Z,2.69
2018-03-20T02:42:29.258Z,2.59
2018-03-20T02:43:09.759Z,2.57
2018-03-20T02:43:50.268Z,2.56
2018-03-20T02:44:30.786Z,2.56
2018-03-20T02:45:11.292Z,2.48
2018-03-20T02:45:51.817Z,2.49
2018-03-20T02:46:32.328Z,2.54
2018-03-20T02:47:12.854Z,2.64
2018-03-20T02:47:53.359Z,2.66
2018-03-20T02:48:33.891Z,2.71
2018-03-20T02:49:14.412Z,2.72
2018-03-20T02:49:54.918Z,2.71
2018-03-20T02:50:35.426Z,2.74
2018-03-20T02:51:15.938Z,2.66
2018-03-20T02:51:56.437Z,2.67
2018-03-20T02:52:36.958Z,2.61
2018-03-20T02:53:17.464Z,2.64
2018-03-20T02:53:57.971Z,2.61
2018-03-20T02:54:38.481Z,2.66
2018-03-20T02:55:18.992Z,2.59
2018-03-20T02:55:59.506Z,2.63
2018-03-20T02:56:40.014Z,2.71
2018-03-20T02:57:20.550Z,2.75
2018-03-20T02:58:01.047Z,2.74
2018-03-20T02:58:41.563Z,2.61
2018-03-20T02:59:22.071Z,2.61
2018-03-20T03:00:02.590Z,2.54
2018-03-20T03:00:43.093Z,2.64
2018-03-20T03:01:23.610Z,2.53
2018-03-20T03:02:04.118Z,2.74
2018-03-20T03:02:44.619Z,2.61
2018-03-20T03:03:25.135Z,2.64
2018-03-20T03:04:05.628Z,2.6
2018-03-20T03:04:46.128Z,2.69
2018-03-20T03:05:26.635Z,2.72
2018-03-20T03:06:07.136Z,2.6
2018-03-20T03:06:47.632Z,2.64
2018-03-20T03:07:28.143Z,2.59
2018-03-20T03:08:08.657Z,2.53
2018-03-20T03:08:49.165Z,2.52
2018-03-20T03:09:29.682Z,2.54
2018-03-20T03:10:10.199Z,2.6
2018-03-20T03:10:50.706Z,2.48
2018-03-20T03:11:31.215Z,2.43
2018-03-20T03:12:11.725Z,2.52
2018-03-20T03:12:52.266Z,2.43
2018-03-20T03:13:32.779Z,2.66
2018-03-20T03:14:13.309Z,2.74
2018-03-20T03:14:53.815Z,2.63
2018-03-20T03:15:34.323Z,2.59
2018-03-20T03:16:14.829Z,2.57
2018-03-20T03:16:55.359Z,2.59
2018-03-20T03:17:35.874Z,2.66
2018-03-20T03:18:16.388Z,2.66
2018-03-20T03:18:56.897Z,2.63
2018-03-20T03:19:37.409Z,2.43
2018-03-20T03:20:17.939Z,2.48
2018-03-20T03:20:58.446Z,2.6
2018-03-20T03:21:38.958Z,2.57
2018-03-20T03:22:19.462Z,2.45
2018-03-20T03:22:59.968Z,2.43
2018-03-20T03:23:40.496Z,2.27
2018-03-20T03:24:21.007Z,2.36
2018-03-20T03:25:01.507Z,2.39
2018-03-20T03:25:42.019Z,2.52
2018-03-20T03:26:22.524Z,2.53
2018-03-20T03:27:03.038Z,2.48
2018-03-20T03:27:43.532Z,2.64
2018-03-20T03:28:24.040Z,2.57
2018-03-20T03:29:04.557Z,2.64
2018-03-20T03:29:45.059Z,2.63
2018-03-20T03:30:25.592Z,2.67
2018-03-20T03:31:06.086Z,2.6
2018-03-20T03:31:46.595Z,2.72
2018-03-20T03:32:27.096Z,2.69
2018-03-20T03:33:07.609Z,2.49
2018-03-20T03:33:48.118Z,2.41
2018-03-20T03:34:28.651Z,2.3
2018-03-20T03:35:09.167Z,2.3
2018-03-20T03:35:49.692Z,2.48
2018-03-20T03:36:30.209Z,2.57
2018-03-20T03:37:10.703Z,2.54
2018-03-20T03:37:51.230Z,2.56
2018-03-20T03:38:31.748Z,2.45
2018-03-20T03:39:12.265Z,2.45
2018-03-20T03:39:52.776Z,2.41
2018-03-20T03:40:33.289Z,2.53
2018-03-20T03:41:13.880Z,2.48
2018-03-20T03:41:54.399Z,2.48
2018-03-20T03:42:34.933Z,2.27
2018-03-20T03:43:15.446Z,2.27
2018-03-20T03:43:55.980Z,2.2
2018-03-20T03:44:36.484Z,2.23
2018-03-20T03:45:17.000Z,2.28
2018-03-20T03:45:57.508Z,2.21
2018-03-20T03:46:38.016Z,2.31
2018-03-20T03:47:18.530Z,2.34
2018-03-20T03:47:59.031Z,2.31
2018-03-20T03:48:39.547Z,2.27
2018-03-20T03:49:20.049Z,2.2
2018-03-20T03:50:00.564Z,2.3
2018-03-20T03:50:41.071Z,2.2
2018-03-20T03:51:21.584Z,2.46
2018-03-20T03:52:02.098Z,2.45
2018-03-20T03:52:42.610Z,2.39
2018-03-20T03:53:23.134Z,2.48
2018-03-20T03:54:03.642Z,2.42
2018-03-20T03:54:44.142Z,2.43
2018-03-20T03:55:24.660Z,2.3
2018-03-20T03:56:05.172Z,2.35
2018-03-20T03:56:45.667Z,2.27
2018-03-20T03:57:26.175Z,2.09
2018-03-20T03:58:06.677Z,2.24
2018-03-20T03:58:47.184Z,2.28
2018-03-20T03:59:27.706Z,2.18
2018-03-20T04:00:08.225Z,2.35
2018-03-20T04:00:48.738Z,2.41
2018-03-20T04:01:29.282Z,2.43
2018-03-20T04:02:09.772Z,2.43
2018-03-20T04:02:50.291Z,2.43
2018-03-20T04:03:30.806Z,2.46
2018-03-20T04:04:11.323Z,2.39
2018-03-20T04:04:51.837Z,2.27
2018-03-20T04:05:32.345Z,2.27
2018-03-20T04:06:12.870Z,2.38
2018-03-20T04:06:53.394Z,2.45
2018-03-20T04:07:33.895Z,2.54
2018-03-20T04:08:14.406Z,2.49
2018-03-20T04:08:54.935Z,2.54
2018-03-20T04:09:35.448Z,2.52
2018-03-20T04:10:15.961Z,2.54
2018-03-20T04:10:56.480Z,2.46
2018-03-20T04:11:36.988Z,2.52
2018-03-20T04:12:17.499Z,2.45
2018-03-20T04:12:58.013Z,2.52
2018-03-20T04:13:38.520Z,2.49
2018-03-20T04:14:19.041Z,2.42
2018-03-20T04:14:59.585Z,2.52
2018-03-20T04:15:40.063Z,2.52
2018-03-20T04:16:20.537Z,2.48
2018-03-20T04:17:01.060Z,2.52
2018-03-20T04:17:41.578Z,2.64
2018-03-20T04:18:22.103Z,2.66
2018-03-20T04:19:02.616Z,2.49
2018-03-20T04:19:43.139Z,2.57
2018-03-20T04:20:23.637Z,2.59
2018-03-20T04:21:04.156Z,2.49
2018-03-20T04:21:44.669Z,2.59
2018-03-20T04:22:25.168Z,2.57
2018-03-20T04:23:05.699Z,2.54
2018-03-20T04:23:46.213Z,2.45
2018-03-20T04:24:26.719Z,2.53
2018-03-20T04:25:07.235Z,2.45
2018-03-20T04:25:47.737Z,2.48
2018-03-20T04:26:28.246Z,2.52
2018-03-20T04:27:08.764Z,2.43
2018-03-20T04:27:49.272Z,2.56
2018-03-20T04:28:29.791Z,2.48
2018-03-20T04:29:10.296Z,2.43
2018-03-20T04:29:50.803Z,2.34
2018-03-20T04:30:31.324Z,2.17
2018-03-20T04:31:11.843Z,2.12
2018-03-20T04:31:52.358Z,2.07
2018-03-20T04:32:32.879Z,2.21
2018-03-20T04:33:13.390Z,2.2
2018-03-20T04:33:53.889Z,2.34
2018-03-20T04:34:34.402Z,2.31
2018-03-20T04:35:14.917Z,2.48
2018-03-20T04:35:55.428Z,2.2
2018-03-20T04:36:35.929Z,2.09
2018-03-20T04:37:16.436Z,2.06
2018-03-20T04:37:57.005Z,2.02
2018-03-20T04:38:37.531Z,2.1
2018-03-20T04:39:18.049Z,2.2
2018-03-20T04:39:58.573Z,2.17
2018-03-20T04:40:39.086Z,2.2
2018-03-20T04:41:19.600Z,2.07
2018-03-20T04:42:00.109Z,2.09
2018-03-20T04:42:40.615Z,2.12
2018-03-20T04:43:21.129Z,1.87
2018-03-20T04:44:01.638Z,1.93
2018-03-20T04:44:42.149Z,2.05
2018-03-20T04:45:22.674Z,2.1
2018-03-20T04:46:03.182Z,2.06
2018-03-20T04:46:43.697Z,2.1
2018-03-20T04:47:24.212Z,2.23
2018-03-20T04:48:04.716Z,2.1
2018-03-20T04:48:45.224Z,2
2018-03-20T04:49:25.734Z,1.79
2018-03-20T04:50:06.240Z,1.65
2018-03-20T04:50:46.754Z,1.77
2018-03-20T04:51:27.246Z,1.72
2018-03-20T04:52:07.768Z,1.77
2018-03-20T04:52:48.277Z,1.79
2018-03-20T04:53:28.791Z,1.76
2018-03-20T04:54:09.299Z,1.63
2018-03-20T04:54:49.816Z,1.77
2018-03-20T04:55:30.327Z,1.86
2018-03-20T04:56:10.836Z,1.9
2018-03-20T04:56:51.361Z,1.95
2018-03-20T04:57:31.868Z,1.88
2018-03-20T04:58:12.377Z,1.87
2018-03-20T04:58:52.890Z,1.79
2018-03-20T04:59:33.395Z,1.77
2018-03-20T05:00:13.904Z,1.76
2018-03-20T05:00:54.398Z,1.81
2018-03-20T05:01:34.929Z,1.8
2018-03-20T05:02:15.443Z,1.76
2018-03-20T05:02:55.967Z,1.81
2018-03-20T05:03:36.486Z,1.8
2018-03-20T05:04:16.998Z,1.87
2018-03-20T05:04:57.514Z,1.87
2018-03-20T05:05:38.031Z,1.79
2018-03-20T05:06:18.544Z,1.8
2018-03-20T05:06:59.084Z,1.88
2018-03-20T05:07:39.561Z,1.98
2018-03-20T05:08:20.092Z,2.03
2018-03-20T05:09:00.613Z,1.95
2018-03-20T05:09:41.125Z,1.86
2018-03-20T05:10:21.624Z,1.86
2018-03-20T05:11:02.129Z,1.87
2018-03-20T05:11:42.648Z,2
2018-03-20T05:12:23.156Z,1.79
2018-03-20T05:13:03.663Z,1.81
2018-03-20T05:13:44.176Z,1.87
2018-03-20T05:14:24.687Z,1.87
2018-03-20T05:15:05.191Z,2.02
2018-03-20T05:15:45.710Z,2.02
2018-03-20T05:16:26.223Z,2.03
2018-03-20T05:17:06.741Z,1.93
2018-03-20T05:17:47.274Z,1.99
2018-03-20T05:18:27.810Z,2.02
2018-03-20T05:19:08.312Z,1.8
2018-03-20T05:19:48.847Z,1.79
2018-03-20T05:20:29.363Z,1.87
2018-03-20T05:21:09.877Z,1.77
2018-03-20T05:21:50.383Z,1.81
2018-03-20T05:22:30.900Z,1.95
2018-03-20T05:23:11.411Z,1.76
2018-03-20T05:23:51.917Z,1.7
2018-03-20T05:24:32.437Z,1.59
2018-03-20T05:25:12.948Z,1.62
2018-03-20T05:25:53.448Z,1.55
2018-03-20T05:26:33.960Z,1.58
2018-03-20T05:27:14.483Z,1.54
2018-03-20T05:27:55.006Z,1.48
2018-03-20T05:28:35.520Z,1.52
2018-03-20T05:29:16.034Z,1.62
2018-03-20T05:29:56.547Z,1.8
2018-03-20T05:30:37.058Z,1.79
2018-03-20T05:31:17.564Z,1.8
2018-03-20T05:31:58.118Z,1.83
2018-03-20T05:32:38.627Z,1.8
2018-03-20T05:33:19.138Z,1.87
2018-03-20T05:33:59.665Z,1.9
2018-03-20T05:34:40.173Z,2.03
2018-03-20T05:35:20.684Z,1.9
2018-03-20T05:36:01.697Z,1.79
2018-03-20T05:36:42.433Z,1.73
2018-03-20T05:37:22.965Z,1.65
2018-03-20T05:38:03.492Z,1.66
2018-03-20T05:38:44.342Z,1.7
2018-03-20T05:39:25.080Z,1.69
2018-03-20T05:40:05.594Z,1.69
2018-03-20T05:40:46.114Z,1.41
2018-03-20T05:41:26.635Z,1.4
2018-03-20T05:42:07.125Z,1.47
2018-03-20T05:42:47.739Z,1.62
2018-03-20T05:43:28.248Z,1.62
2018-03-20T05:44:08.815Z,1.79
2018-03-20T05:44:49.315Z,1.9
2018-03-20T05:45:29.827Z,1.95
2018-03-20T05:46:10.338Z,1.86
2018-03-20T05:46:50.858Z,1.91
2018-03-20T05:47:31.376Z,1.95
2018-03-20T05:48:11.895Z,1.88
2018-03-20T05:48:52.411Z,2.12
2018-03-20T05:49:32.913Z,2.2
2018-03-20T05:50:13.427Z,2.2
2018-03-20T05:50:53.946Z,2.17
2018-03-20T05:51:34.459Z,2.07
2018-03-20T05:52:14.967Z,2.24
2018-03-20T05:52:55.476Z,1.99
2018-03-20T05:53:35.987Z,2.09
2018-03-20T05:54:16.489Z,2.21
2018-03-20T05:54:57.004Z,2.18
2018-03-20T05:55:37.501Z,2.17
2018-03-20T05:56:18.010Z,2.25
2018-03-20T05:56:58.511Z,2.2
2018-03-20T05:57:39.009Z,2.14
2018-03-20T05:58:19.513Z,2.07
2018-03-20T05:59:00.006Z,2.21
2018-03-20T05:59:40.511Z,2.34
2018-03-20T06:00:21.022Z,2.3
2018-03-20T06:01:01.592Z,2.38
2018-03-20T06:01:42.110Z,2.43
2018-03-20T06:02:22.624Z,2.48
2018-03-20T06:03:03.154Z,2.43
2018-03-20T06:03:43.657Z,2.45
2018-03-20T06:04:24.184Z,2.54
2018-03-20T06:05:04.694Z,2.46
2018-03-20T06:05:45.202Z,2.46
2018-03-20T06:06:25.709Z,2.46
2018-03-20T06:07:06.236Z,2.54
2018-03-20T06:07:46.738Z,2.49
2018-03-20T06:08:27.250Z,2.57
2018-03-20T06:09:07.826Z,2.49
2018-03-20T06:09:48.336Z,2.48
2018-03-20T06:10:28.877Z,2.6
2018-03-20T06:11:09.387Z,2.63
2018-03-20T06:11:49.949Z,2.63
2018-03-20T06:12:30.456Z,2.53
2018-03-20T06:13:10.978Z,2.59
2018-03-20T06:13:51.507Z,2.42
2018-03-20T06:14:31.937Z,2.53
2018-03-20T06:15:12.421Z,2.61
2018-03-20T06:15:52.906Z,2.52
2018-03-20T06:16:33.403Z,2.54
2018-03-20T06:17:13.860Z,2.69
2018-03-20T06:17:54.323Z,2.69
2018-03-20T06:18:34.868Z,2.63
2018-03-20T06:19:15.312Z,2.59
2018-03-20T06:19:55.765Z,2.6
2018-03-20T06:20:36.362Z,2.6
2018-03-20T06:21:16.873Z,2.61
2018-03-20T06:21:57.397Z,2.57
2018-03-20T06:22:37.820Z,2.66
2018-03-20T06:23:18.304Z,2.71
2018-03-20T06:23:58.764Z,2.77
2018-03-20T06:24:39.222Z,2.85
2018-03-20T06:25:19.711Z,2.87
2018-03-20T06:26:00.187Z,2.9
2018-03-20T06:26:40.705Z,2.95
2018-03-20T06:27:21.250Z,2.9
2018-03-20T06:28:02.047Z,2.95
2018-03-20T06:28:42.452Z,2.89
2018-03-20T06:29:24.500Z,2.89
2018-03-20T06:30:05.056Z,2.66
2018-03-20T06:30:45.575Z,2.71
2018-03-20T06:31:25.993Z,2.64
2018-03-20T06:32:06.464Z,2.74
2018-03-20T06:32:46.953Z,2.64
2018-03-20T06:33:27.428Z,2.71
2018-03-20T06:34:07.940Z,2.71
2018-03-20T06:34:48.434Z,2.72
2018-03-20T06:35:28.889Z,2.82
2018-03-20T06:36:09.389Z,2.87
2018-03-20T06:36:49.877Z,2.85
2018-03-20T06:37:30.347Z,2.96
2018-03-20T06:38:10.846Z,2.95
2018-03-20T06:38:51.348Z,2.96
2018-03-20T06:39:31.847Z,3.08
2018-03-20T06:40:12.322Z,3
2018-03-20T06:40:52.798Z,3.05
2018-03-20T06:41:33.273Z,3.03
2018-03-20T06:42:13.782Z,3.03
2018-03-20T06:42:54.240Z,3.06
2018-03-20T06:43:34.780Z,3.11
2018-03-20T06:44:15.288Z,3.13
2018-03-20T06:44:55.765Z,3.15
2018-03-20T06:45:36.295Z,3.13
2018-03-20T06:46:16.721Z,3.03
2018-03-20T06:46:57.233Z,3.15
2018-03-20T06:47:37.754Z,3.15
2018-03-20T06:48:18.233Z,3.15
2018-03-20T06:48:58.728Z,3.11
2018-03-20T06:49:39.206Z,3.06
2018-03-20T06:50:19.720Z,3.06
2018-03-20T06:51:00.234Z,3.05
2018-03-20T06:51:40.683Z,2.95
2018-03-20T06:52:21.220Z,3
2018-03-20T06:53:01.695Z,2.99
2018-03-20T06:53:42.162Z,2.97
2018-03-20T06:54:22.816Z,2.99
2018-03-20T06:55:03.303Z,3
2018-03-20T06:55:43.822Z,3
2018-03-20T06:56:24.264Z,3.11
2018-03-20T06:57:04.821Z,3.11
2018-03-20T06:57:45.260Z,3.1
2018-03-20T06:58:25.707Z,3.23
2018-03-20T06:59:06.432Z,3.18
2018-03-20T06:59:46.703Z,3.23
2018-03-20T07:00:27.315Z,3.05
2018-03-20T07:01:07.763Z,3.17
2018-03-20T07:01:48.303Z,3.24
2018-03-20T07:02:28.759Z,3.39
2018-03-20T07:03:09.221Z,3.54
2018-03-20T07:03:49.809Z,3.61
2018-03-20T07:04:30.296Z,3.68
2018-03-20T07:05:10.777Z,3.65
2018-03-20T07:05:51.310Z,3.68
2018-03-20T07:06:31.849Z,3.75
2018-03-20T07:07:12.269Z,3.83
2018-03-20T07:07:52.794Z,3.98
2018-03-20T07:08:33.338Z,4.02
2018-03-20T07:09:13.797Z,4.32
2018-03-20T07:09:54.351Z,4.23
2018-03-20T07:10:34.796Z,4.97
2018-03-20T07:11:15.425Z,5.45
2018-03-20T07:11:55.936Z,5.3
2018-03-20T07:12:36.608Z,5.03
2018-03-20T07:13:16.966Z,4.94
2018-03-20T07:13:57.415Z,4.96
2018-03-20T07:14:37.887Z,4.78
2018-03-20T07:15:18.426Z,4.62
2018-03-20T07:15:58.846Z,4.5
2018-03-20T07:16:39.320Z,4.44
2018-03-20T07:17:19.865Z,4.44
2018-03-20T07:18:00.339Z,4.44
2018-03-20T07:18:40.800Z,4.4
2018-03-20T07:19:21.334Z,4.48
2018-03-20T07:20:01.766Z,4.58
2018-03-20T07:20:42.612Z,4.75
2018-03-20T07:21:23.038Z,4.94
2018-03-20T07:22:03.557Z,4.92
2018-03-20T07:22:44.203Z,4.77
2018-03-20T07:23:24.508Z,4.62
2018-03-20T07:24:04.988Z,4.67
2018-03-20T07:24:45.499Z,4.67
2018-03-20T07:25:31.593Z,4.77
2018-03-20T07:26:12.143Z,4.89
2018-03-20T07:26:52.643Z,4.77
2018-03-20T07:27:33.061Z,4.84
2018-03-20T07:28:13.579Z,4.88
2018-03-20T07:28:54.084Z,4.88
2018-03-20T07:29:34.498Z,4.88
2018-03-20T07:30:15.042Z,4.72
2018-03-20T07:30:55.514Z,4.65
2018-03-20T07:31:36.023Z,4.65
2018-03-20T07:32:16.508Z,4.65
2018-03-20T07:32:57.041Z,4.82
2018-03-20T07:33:37.533Z,4.89
2018-03-20T07:34:18.017Z,4.73
2018-03-20T07:34:58.511Z,4.58
2018-03-20T07:35:38.974Z,4.52
2018-03-20T07:36:19.495Z,4.47
2018-03-20T07:36:59.974Z,4.63
2018-03-20T07:37:40.464Z,4.69
2018-03-20T07:38:20.962Z,4.78
2018-03-20T07:39:01.543Z,4.84
2018-03-20T07:39:41.930Z,4.89
2018-03-20T07:40:22.486Z,4.78
2018-03-20T07:41:02.934Z,4.72
2018-03-20T07:41:43.494Z,4.65
2018-03-20T07:42:24.005Z,4.66
2018-03-20T07:43:04.467Z,4.77
2018-03-20T07:43:45.013Z,4.65
2018-03-20T07:44:25.520Z,4.69
2018-03-20T07:45:05.951Z,4.73
2018-03-20T07:45:46.475Z,4.8
2018-03-20T07:46:26.937Z,4.72
2018-03-20T07:47:07.390Z,4.69
2018-03-20T07:47:47.898Z,4.78
2018-03-20T07:48:29.196Z,4.97
2018-03-20T07:49:09.549Z,5.2
2018-03-20T07:49:50.050Z,5.18
2018-03-20T07:50:30.612Z,5.17
2018-03-20T07:51:11.370Z,5.07
2018-03-20T07:51:51.678Z,5.24
2018-03-20T07:52:32.198Z,5.4
2018-03-20T07:53:12.948Z,5.53
2018-03-20T07:53:53.513Z,5.45
2018-03-20T07:54:34.096Z,5.3
2018-03-20T07:55:14.572Z,5.06
2018-03-20T07:55:55.617Z,5.17
2018-03-20T07:56:36.312Z,5.21
2018-03-20T07:57:16.925Z,5.17
2018-03-20T07:57:57.439Z,5.04
2018-03-20T07:58:37.937Z,5.18
2018-03-20T07:59:18.457Z,5.21
2018-03-20T07:59:59.157Z,5.28
2018-03-20T08:00:39.704Z,5.28
2018-03-20T08:01:20.207Z,5.46
2018-03-20T08:02:01.079Z,5.67
2018-03-20T08:02:41.579Z,5.58
2018-03-20T08:03:22.092Z,5.35
2018-03-20T08:04:02.512Z,5.43
2018-03-20T08:04:43.104Z,5.24
2018-03-20T08:05:23.491Z,5.28
2018-03-20T08:06:04.007Z,5.25
2018-03-20T08:06:44.767Z,5.02
2018-03-20T08:07:25.352Z,4.91
2018-03-20T08:08:05.838Z,4.88
2018-03-20T08:08:46.337Z,4.66
2018-03-20T08:09:27.066Z,4.8
2018-03-20T08:10:07.837Z,4.78
2018-03-20T08:10:48.344Z,4.67
2018-03-20T08:11:28.941Z,4.72
2018-03-20T08:12:09.773Z,4.77
2018-03-20T08:12:50.251Z,4.7
2018-03-20T08:13:31.030Z,4.78
2018-03-20T08:14:11.333Z,4.94
2018-03-20T08:14:52.025Z,4.86
2018-03-20T08:15:32.545Z,4.99
2018-03-20T08:16:13.016Z,5.04
2018-03-20T08:16:54.025Z,5.09
2018-03-20T08:17:34.612Z,5.02
2018-03-20T08:18:15.231Z,4.92
2018-03-20T08:18:55.747Z,4.75
2018-03-20T08:19:36.282Z,4.78
2018-03-20T08:20:16.779Z,4.75
2018-03-20T08:20:57.268Z,4.92
2018-03-20T08:21:37.759Z,4.97
2018-03-20T08:22:18.304Z,5.12
2018-03-20T08:22:58.783Z,5.07
2018-03-20T08:23:39.250Z,5.21
2018-03-20T08:24:19.983Z,5.21
2018-03-20T08:25:00.478Z,5.18
2018-03-20T08:25:40.978Z,5.28
2018-03-20T08:26:22.308Z,5.28
2018-03-20T08:27:01.985Z,5.22
2018-03-20T08:27:42.425Z,5.22
2018-03-20T08:28:22.993Z,5
2018-03-20T08:29:03.481Z,5.25
2018-03-20T08:29:43.938Z,5.39
2018-03-20T08:30:24.492Z,5.42
2018-03-20T08:31:04.955Z,5.36
2018-03-20T08:31:45.449Z,5.27
2018-03-20T08:32:25.943Z,5.36
2018-03-20T08:33:06.424Z,5.38
2018-03-20T08:33:46.968Z,5.31
2018-03-20T08:34:27.491Z,5.25
2018-03-20T08:35:07.965Z,5.36
2018-03-20T08:35:48.477Z,5.2
2018-03-20T08:36:29.014Z,5.3
2018-03-20T08:37:09.553Z,5.24
2018-03-20T08:37:50.038Z,5.18
2018-03-20T08:38:30.525Z,5.28
2018-03-20T08:39:11.040Z,5.18
2018-03-20T08:39:51.523Z,5.27
2018-03-20T08:40:31.998Z,5.35
2018-03-20T08:41:12.522Z,5.15
2018-03-20T08:41:52.987Z,5.15
2018-03-20T08:42:33.496Z,5.24
2018-03-20T08:43:14.080Z,5.04
2018-03-20T08:43:54.626Z,5.02
2018-03-20T08:44:35.045Z,4.8
2018-03-20T08:45:15.711Z,4.75
2018-03-20T08:45:56.165Z,4.73
2018-03-20T08:46:36.610Z,4.77
2018-03-20T08:47:17.136Z,4.73
2018-03-20T08:47:57.579Z,4.88
2018-03-20T08:48:38.269Z,5.03
2018-03-20T08:49:18.739Z,5.02
2018-03-20T08:49:59.274Z,5.24
2018-03-20T08:50:39.858Z,5.13
2018-03-20T08:51:20.488Z,5.28
2018-03-20T08:52:01.132Z,5.27
2018-03-20T08:52:41.628Z,5.27
2018-03-20T08:53:22.148Z,5.31
2018-03-20T08:54:02.627Z,5.33
2018-03-20T08:54:43.136Z,5.35
2018-03-20T08:55:23.695Z,5.3
2018-03-20T08:56:04.211Z,5.33
2018-03-20T08:56:44.689Z,5.38
2018-03-20T08:57:25.136Z,5.42
2018-03-20T08:58:05.669Z,5.81
2018-03-20T08:58:46.129Z,5.96
2018-03-20T08:59:26.763Z,6
2018-03-20T09:00:07.069Z,5.85
2018-03-20T09:00:47.591Z,5.65
2018-03-20T09:01:28.124Z,5.75
2018-03-20T09:02:08.613Z,5.64
2018-03-20T09:02:49.348Z,5.58